Time;durP1;ratioP1;P1;durP2;ratioP2;P2;SDS_P1;SDS_P2;PMS_P1;PMS_P2;Temp;Humidity;BMP_temperature;BMP_pressure;BME280_temperature;BME280_humidity;BME280_pressure;Samples;Min_cycle;Max_cycle;Signal;HPM_P1;HPM_P2
2023/03/15 00:02:02;;;;;;;10.10;4.70;;;;;;;19.78;27.25;99472.50;108248;1254;73579;-65
2023/03/15 00:04:31;;;;;;;8.10;4.20;;;;;;;19.27;27.82;99464.95;108237;1254;61062;-67
2023/03/15 00:06:58;;;;;;;13.80;5.10;;;;;;;19.10;28.28;99465.51;108297;1254;60360;-65
2023/03/15 00:09:24;;;;;;;9.70;4.70;;;;;;;19.45;27.99;99459.95;108228;1251;72905;-66
2023/03/15 00:11:53;;;;;;;7.40;3.40;;;;;;;19.14;28.40;99461.29;108308;1255;70414;-67
2023/03/15 00:14:20;;;;;;;8.20;4.20;;;;;;;18.85;28.73;99459.73;108345;1251;72897;-66
2023/03/15 00:16:47;;;;;;;6.90;4.30;;;;;;;19.22;28.39;99452.35;108351;1252;61275;-64
2023/03/15 00:19:18;;;;;;;6.00;3.40;;;;;;;19.03;28.67;99451.83;108374;1251;60382;-65
2023/03/15 00:21:44;;;;;;;9.50;5.20;;;;;;;18.92;28.81;99446.37;108334;1251;73784;-64
2023/03/15 00:24:11;;;;;;;6.50;3.70;;;;;;;19.09;28.70;99432.55;108379;1251;71395;-64
2023/03/15 00:26:39;;;;;;;5.80;4.00;;;;;;;18.77;29.24;99430.73;108413;1256;73135;-65
2023/03/15 00:29:07;;;;;;;11.40;4.10;;;;;;;18.43;29.68;99431.30;108414;1251;62313;-64
2023/03/15 00:31:36;;;;;;;11.90;3.30;;;;;;;18.80;29.29;99434.05;108434;1251;59804;-66
2023/03/15 00:34:03;;;;;;;7.10;3.50;;;;;;;18.41;29.79;99431.63;108301;1251;74245;-62
2023/03/15 00:36:30;;;;;;;7.90;4.10;;;;;;;18.96;29.30;99436.58;108349;1251;71469;-65
2023/03/15 00:38:58;;;;;;;9.60;4.20;;;;;;;19.25;28.76;99438.98;108383;1251;73518;-67
2023/03/15 00:41:25;;;;;;;7.10;4.10;;;;;;;19.14;28.82;99437.42;108403;1256;62056;-66
2023/03/15 00:43:53;;;;;;;9.60;4.40;;;;;;;19.05;28.90;99429.80;108375;1251;61055;-66
2023/03/15 00:46:20;;;;;;;5.80;3.80;;;;;;;18.72;29.44;99435.16;108367;1255;73245;-65
2023/03/15 00:48:50;;;;;;;11.70;4.40;;;;;;;18.81;29.35;99435.22;108299;1256;70986;-66
2023/03/15 00:51:22;;;;;;;8.00;4.80;;;;;;;18.43;29.94;99438.66;108432;1251;72854;-65
2023/03/15 00:53:50;;;;;;;7.60;4.00;;;;;;;18.53;29.80;99429.77;108351;1251;62302;-65
2023/03/15 00:56:26;;;;;;;8.80;4.70;;;;;;;18.79;29.53;99436.77;108347;1251;61294;-63
2023/03/15 00:58:54;;;;;;;8.10;4.30;;;;;;;18.54;29.75;99437.39;108379;1251;73357;-64
2023/03/15 01:01:24;;;;;;;8.40;4.60;;;;;;;18.40;30.14;99437.93;108321;1251;70369;-64
2023/03/15 01:03:53;;;;;;;10.00;4.30;;;;;;;18.43;30.16;99433.21;108260;1251;72325;-66
2023/03/15 01:06:24;;;;;;;6.40;3.90;;;;;;;19.22;29.11;99427.17;108282;1251;60847;-64
2023/03/15 01:08:53;;;;;;;12.00;5.10;;;;;;;19.07;29.19;99427.55;108345;1250;59557;-63
2023/03/15 01:11:23;;;;;;;9.40;4.70;;;;;;;19.13;29.24;99428.83;108445;1250;73195;-65
2023/03/15 01:13:51;;;;;;;8.00;4.40;;;;;;;19.12;29.05;99431.57;108335;1251;70264;-67
2023/03/15 01:16:18;;;;;;;8.90;4.70;;;;;;;19.36;28.91;99434.34;108331;1254;71877;-66
2023/03/15 01:18:45;;;;;;;9.70;4.30;;;;;;;19.36;28.96;99435.43;108344;1250;60278;-66
2023/03/15 01:21:13;;;;;;;10.30;4.70;;;;;;;19.07;29.16;99434.09;108421;1250;60467;-65
2023/03/15 01:23:40;;;;;;;9.70;4.60;;;;;;;18.96;29.41;99437.89;108462;1251;73958;-66
2023/03/15 01:26:09;;;;;;;8.00;4.10;;;;;;;18.40;30.15;99444.20;108320;1251;71340;-66
2023/03/15 01:28:39;;;;;;;6.60;4.00;;;;;;;18.17;30.62;99446.39;108259;1251;73888;-68
2023/03/15 01:31:13;;;;;;;11.00;4.80;;;;;;;18.14;30.71;99444.11;108326;1251;61415;-67
2023/03/15 01:33:42;;;;;;;9.50;5.00;;;;;;;18.69;29.85;99439.70;108321;1251;60303;-66
2023/03/15 01:36:09;;;;;;;8.00;4.70;;;;;;;18.76;29.69;99435.74;108401;1251;74254;-66
2023/03/15 01:38:38;;;;;;;8.30;4.80;;;;;;;18.27;30.56;99442.75;108307;1251;71764;-65
2023/03/15 01:41:05;;;;;;;8.30;4.80;;;;;;;18.20;30.61;99438.25;108164;1251;73707;-65
2023/03/15 01:43:32;;;;;;;7.00;4.20;;;;;;;17.95;30.97;99432.67;108263;1251;60702;-65
2023/03/15 01:46:24;;;;;;;9.40;5.00;;;;;;;17.88;31.03;99433.50;108228;1252;60357;-65
2023/03/15 01:49:14;;;;;;;8.30;4.30;;;;;;;18.21;30.72;99433.09;108446;1250;73680;-65
2023/03/15 01:51:57;;;;;;;10.70;4.30;;;;;;;18.04;30.90;99435.67;108311;1251;71455;-67
2023/03/15 01:54:32;;;;;;;8.40;4.40;;;;;;;17.87;31.14;99442.48;108321;1250;71659;-65
2023/03/15 01:57:08;;;;;;;6.70;3.70;;;;;;;18.52;30.35;99448.72;108280;1254;61716;-66
2023/03/15 01:59:57;;;;;;;6.20;3.90;;;;;;;17.88;31.11;99448.92;108325;1251;61276;-65
2023/03/15 02:02:25;;;;;;;8.10;5.00;;;;;;;17.62;31.49;99446.55;108576;1250;74436;-65
2023/03/15 02:04:57;;;;;;;10.60;5.10;;;;;;;18.25;30.79;99448.61;108429;1251;70440;-66
2023/03/15 02:07:26;;;;;;;7.90;4.60;;;;;;;17.91;31.04;99445.20;108454;1251;72533;-68
2023/03/15 02:09:59;;;;;;;9.20;5.00;;;;;;;17.39;31.86;99447.92;108403;1251;60969;-68
2023/03/15 02:12:26;;;;;;;6.00;3.80;;;;;;;18.07;30.94;99444.11;108410;1251;60427;-65
2023/03/15 02:14:53;;;;;;;8.60;3.60;;;;;;;17.50;31.67;99440.31;108360;1254;75088;-65
2023/03/15 02:17:21;;;;;;;9.60;5.10;;;;;;;17.66;31.46;99441.98;108391;1251;69450;-65
2023/03/15 02:19:54;;;;;;;12.50;5.60;;;;;;;17.61;31.56;99440.44;108320;1251;73835;-67
2023/03/15 02:22:40;;;;;;;6.80;4.30;;;;;;;17.55;31.71;99440.38;108374;1251;61049;-65
2023/03/15 02:25:41;;;;;;;8.20;4.20;;;;;;;17.02;32.61;99443.14;108360;1251;61460;-66
2023/03/15 02:28:10;;;;;;;10.50;4.90;;;;;;;17.97;31.42;99433.51;108299;1250;73864;-65
2023/03/15 02:30:36;;;;;;;12.00;5.50;;;;;;;16.92;32.75;99443.43;108259;1251;71286;-65
2023/03/15 02:33:05;;;;;;;10.60;5.70;;;;;;;17.41;32.26;99437.67;108334;1254;72883;-67
2023/03/15 02:35:32;;;;;;;6.30;3.80;;;;;;;17.38;32.22;99436.80;108313;1251;62207;-66
2023/03/15 02:38:03;;;;;;;9.00;4.20;;;;;;;17.03;32.73;99429.00;108320;1250;60523;-66
2023/03/15 02:40:30;;;;;;;11.80;6.50;;;;;;;17.17;32.59;99428.51;108312;1250;75022;-65
2023/03/15 02:43:04;;;;;;;16.00;5.70;;;;;;;16.95;32.99;99434.36;108249;1251;71814;-62
2023/03/15 02:45:32;;;;;;;10.60;5.70;;;;;;;17.18;32.75;99430.58;108290;1251;74046;-65
2023/03/15 02:48:00;;;;;;;13.30;6.70;;;;;;;17.63;32.10;99422.65;108327;1250;61361;-63
2023/03/15 02:50:28;;;;;;;9.90;6.50;;;;;;;17.89;31.63;99419.93;108372;1250;60410;-64
2023/03/15 02:52:54;;;;;;;13.80;5.60;;;;;;;17.62;31.94;99413.89;108328;1251;73112;-65
2023/03/15 02:55:21;;;;;;;12.70;6.70;;;;;;;17.16;32.58;99412.06;108311;1251;69477;-65
2023/03/15 02:57:48;;;;;;;11.30;6.30;;;;;;;17.01;32.92;99407.02;108234;1251;73090;-65
2023/03/15 03:00:16;;;;;;;7.30;4.50;;;;;;;16.93;33.11;99403.19;108323;1250;61583;-66
2023/03/15 03:02:47;;;;;;;14.30;6.20;;;;;;;16.87;33.24;99409.59;108248;1251;60205;-65
2023/03/15 03:05:15;;;;;;;10.70;5.30;;;;;;;17.41;32.34;99406.83;108335;1251;73917;-63
2023/03/15 03:07:42;;;;;;;11.60;6.20;;;;;;;17.00;33.02;99410.60;108364;1251;70267;-65
2023/03/15 03:10:10;;;;;;;13.40;6.80;;;;;;;17.33;32.43;99406.50;108363;1250;73248;-65
2023/03/15 03:12:46;;;;;;;12.40;6.00;;;;;;;17.26;32.39;99402.65;108441;1251;61200;-65
2023/03/15 03:15:13;;;;;;;10.90;5.50;;;;;;;16.92;33.02;99405.02;108438;1251;61130;-64
2023/03/15 03:17:41;;;;;;;14.50;6.00;;;;;;;16.62;33.47;99409.38;108434;1251;74871;-66
2023/03/15 03:20:10;;;;;;;12.00;6.40;;;;;;;16.76;33.29;99403.90;108337;1250;70761;-65
2023/03/15 03:22:43;;;;;;;12.60;5.60;;;;;;;16.60;33.44;99407.33;108426;1251;72468;-65
2023/03/15 03:25:11;;;;;;;12.20;7.70;;;;;;;16.20;34.09;99406.91;108316;1250;60776;-65
2023/03/15 03:27:39;;;;;;;17.90;7.30;;;;;;;16.48;33.74;99408.71;108309;1250;60800;-66
2023/03/15 03:30:11;;;;;;;13.20;6.80;;;;;;;16.14;34.39;99409.77;108357;1251;73840;-67
2023/03/15 03:32:40;;;;;;;21.10;7.60;;;;;;;16.37;33.98;99411.14;108421;1251;70574;-66
2023/03/15 03:35:08;;;;;;;13.30;7.30;;;;;;;16.54;33.85;99415.05;108457;1251;72191;-65
2023/03/15 03:37:35;;;;;;;15.90;7.90;;;;;;;16.91;33.15;99408.78;108353;1250;61145;-65
2023/03/15 03:40:19;;;;;;;13.80;7.70;;;;;;;16.78;33.22;99409.06;108292;1251;61663;-67
2023/03/15 03:42:46;;;;;;;13.20;7.00;;;;;;;16.25;34.15;99412.74;108489;1251;73982;-66
2023/03/15 03:45:16;;;;;;;12.40;6.60;;;;;;;15.76;34.93;99419.54;108460;1251;71469;-66
2023/03/15 03:47:43;;;;;;;15.40;7.40;;;;;;;15.58;35.33;99418.96;108350;1254;73914;-65
2023/03/15 03:50:11;;;;;;;14.00;6.80;;;;;;;15.42;35.61;99411.73;108225;1251;60541;-65
2023/03/15 03:52:44;;;;;;;13.40;8.00;;;;;;;15.59;35.48;99415.21;108475;1252;61337;-66
2023/03/15 03:55:16;;;;;;;14.00;6.90;;;;;;;15.63;35.45;99420.09;108396;1251;72927;-65
2023/03/15 03:57:43;;;;;;;15.00;8.40;;;;;;;15.76;35.38;99421.11;108222;1251;70507;-66
2023/03/15 04:00:13;;;;;;;17.60;9.00;;;;;;;16.16;34.75;99424.17;108431;1251;73051;-65
2023/03/15 04:02:43;;;;;;;;;;;;;;;16.19;34.65;99429.67;108499;1251;61264;-65
2023/03/15 04:05:13;;;;;;;18.20;9.70;;;;;;;16.73;33.85;99421.80;108406;1251;60327;-63
2023/03/15 04:07:42;;;;;;;18.10;9.20;;;;;;;17.12;33.08;99417.88;108303;1251;75013;-65
2023/03/15 04:10:13;;;;;;;20.50;9.60;;;;;;;16.57;34.13;99419.09;108260;1250;70225;-66
2023/03/15 04:12:43;;;;;;;21.50;10.00;;;;;;;17.10;33.29;99414.86;108254;1250;73819;-67
2023/03/15 04:15:10;;;;;;;22.60;9.50;;;;;;;16.60;33.95;99417.43;108381;1251;62062;-66
2023/03/15 04:17:38;;;;;;;20.00;9.70;;;;;;;16.59;34.11;99418.45;108243;1251;61259;-66
2023/03/15 04:20:07;;;;;;;19.50;10.40;;;;;;;16.33;34.53;99424.01;108277;1251;74667;-65
2023/03/15 04:22:38;;;;;;;19.00;10.10;;;;;;;16.42;34.45;99422.86;108355;1251;70464;-66
2023/03/15 04:25:25;;;;;;;24.90;10.10;;;;;;;16.16;34.92;99425.23;108261;1250;71769;-66
2023/03/15 04:28:12;;;;;;;20.30;9.70;;;;;;;16.40;34.70;99423.20;108293;1251;62167;-67
2023/03/15 04:31:09;;;;;;;22.50;11.30;;;;;;;16.60;34.39;99420.47;108309;1251;61500;-66
2023/03/15 04:33:36;;;;;;;16.90;9.70;;;;;;;16.58;34.35;99420.25;108344;1255;74859;-67
2023/03/15 04:36:23;;;;;;;26.10;7.10;;;;;;;16.46;34.70;99425.00;108241;1256;70360;-64
2023/03/15 04:39:09;;;;;;;15.40;9.10;;;;;;;16.08;35.41;99422.44;108387;1253;73888;-67
2023/03/15 04:41:56;;;;;;;21.70;10.70;;;;;;;16.50;34.86;99420.64;108338;1251;60734;-65
2023/03/15 04:44:39;;;;;;;21.60;10.40;;;;;;;17.24;33.73;99416.41;108345;1256;61216;-65
2023/03/15 04:47:25;;;;;;;19.80;10.20;;;;;;;16.81;34.17;99419.48;108409;1251;74710;-69
2023/03/15 04:50:12;;;;;;;22.70;8.60;;;;;;;17.00;33.81;99419.87;108340;1251;70622;-65
2023/03/15 04:52:53;;;;;;;17.60;9.30;;;;;;;16.86;34.13;99423.51;108320;1251;72678;-68
2023/03/15 04:55:39;;;;;;;16.60;9.00;;;;;;;16.53;34.86;99426.47;107694;1259;61624;-66
2023/03/15 04:58:37;;;;;;;22.00;10.90;;;;;;;16.37;35.11;99428.88;108192;1251;60671;-64
2023/03/15 05:01:29;;;;;;;18.50;10.60;;;;;;;16.42;35.16;99431.67;108369;1251;74142;-66
2023/03/15 05:04:16;;;;;;;19.60;11.20;;;;;;;16.10;35.69;99430.41;108360;1251;69758;-66
2023/03/15 05:07:07;;;;;;;18.90;10.40;;;;;;;15.87;36.23;99440.00;108263;1251;71665;-66
2023/03/15 05:09:53;;;;;;;21.20;11.50;;;;;;;16.34;35.65;99440.25;108352;1251;62040;-68
2023/03/15 05:12:23;;;;;;;21.90;12.00;;;;;;;16.63;35.41;99440.61;108346;1251;59343;-65
2023/03/15 05:15:09;;;;;;;16.60;9.00;;;;;;;17.45;34.09;99436.65;108350;1251;74837;-67
2023/03/15 05:17:57;;;;;;;21.80;9.40;;;;;;;18.29;32.75;99436.52;108122;1251;71211;-67
2023/03/15 05:20:42;;;;;;;19.90;10.60;;;;;;;18.63;32.23;99438.20;108330;1251;73586;-68
2023/03/15 05:23:27;;;;;;;20.80;10.50;;;;;;;18.14;32.70;99448.38;108327;1251;60741;-66
2023/03/15 05:26:29;;;;;;;20.60;9.70;;;;;;;18.77;32.08;99447.92;108001;1256;60507;-68
2023/03/15 05:29:15;;;;;;;18.70;10.40;;;;;;;19.56;31.04;99450.10;108321;1251;75006;-66
2023/03/15 05:32:07;;;;;;;17.90;9.80;;;;;;;20.43;29.76;99452.42;108295;1251;71198;-66
2023/03/15 05:34:57;;;;;;;15.90;8.70;;;;;;;21.09;28.92;99446.11;108277;1251;73347;-65
2023/03/15 05:37:54;;;;;;;18.20;10.00;;;;;;;21.56;28.30;99447.13;107833;1258;61312;-66
2023/03/15 05:40:51;;;;;;;18.30;9.10;;;;;;;21.75;28.16;99447.56;108431;1251;60191;-68
2023/03/15 05:43:36;;;;;;;16.20;7.80;;;;;;;20.79;28.91;99455.22;108287;1251;74926;-67
2023/03/15 05:46:22;;;;;;;19.90;9.50;;;;;;;20.22;29.74;99453.66;108379;1251;71651;-66
2023/03/15 05:49:08;;;;;;;16.00;9.20;;;;;;;21.23;28.59;99449.81;108262;1251;72238;-67
2023/03/15 05:51:54;;;;;;;16.90;9.60;;;;;;;21.40;28.31;99454.35;108294;1251;60379;-67
2023/03/15 05:54:37;;;;;;;18.30;9.20;;;;;;;21.67;28.03;99455.94;108227;1251;60942;-66
2023/03/15 05:57:26;;;;;;;21.60;10.50;;;;;;;21.01;28.68;99453.25;108240;1251;73943;-68
2023/03/15 06:00:15;;;;;;;15.60;9.50;;;;;;;21.01;28.87;99447.50;108051;1251;69070;-67
2023/03/15 06:02:48;;;;;;;20.20;10.20;;;;;;;21.22;28.63;99443.13;108261;1251;72737;-67
2023/03/15 06:05:44;;;;;;;19.30;9.30;;;;;;;21.41;28.47;99442.80;108184;1251;60204;-66
2023/03/15 06:08:14;;;;;;;16.30;9.00;;;;;;;21.58;28.14;99443.57;108288;1251;61161;-66
2023/03/15 06:10:43;;;;;;;20.80;11.20;;;;;;;21.57;28.10;99443.09;108268;1253;74727;-67
2023/03/15 06:13:11;;;;;;;18.80;10.60;;;;;;;21.67;28.07;99440.37;108215;1251;70401;-66
2023/03/15 06:15:39;;;;;;;18.20;9.40;;;;;;;21.27;28.34;99446.27;108397;1251;73624;-67
2023/03/15 06:18:07;;;;;;;20.10;11.90;;;;;;;20.87;29.03;99448.30;108343;1251;60612;-67
2023/03/15 06:20:36;;;;;;;18.70;9.40;;;;;;;20.79;29.13;99449.18;108339;1251;60425;-66
2023/03/15 06:23:07;;;;;;;16.70;9.80;;;;;;;20.30;29.83;99451.61;108329;1255;75059;-67
2023/03/15 06:25:46;;;;;;;17.70;10.20;;;;;;;20.31;30.04;99451.09;108372;1251;69593;-67
2023/03/15 06:28:13;;;;;;;23.30;11.60;;;;;;;20.37;30.02;99449.51;108366;1251;72739;-67
2023/03/15 06:30:50;;;;;;;26.00;13.70;;;;;;;20.06;30.55;99454.20;108456;1251;60824;-65
2023/03/15 06:33:20;;;;;;;24.20;13.50;;;;;;;20.37;30.27;99450.57;108370;1252;60421;-67
2023/03/15 06:35:47;;;;;;;22.00;11.50;;;;;;;20.71;29.82;99441.10;108394;1250;73266;-67
2023/03/15 06:38:14;;;;;;;27.00;13.50;;;;;;;20.68;29.91;99439.27;108381;1257;69694;-66
2023/03/15 06:40:42;;;;;;;23.30;12.20;;;;;;;21.14;29.31;99434.26;108349;1250;72042;-66
2023/03/15 06:43:18;;;;;;;21.00;12.20;;;;;;;21.70;28.72;99429.62;108402;1250;62099;-67
2023/03/15 06:45:45;;;;;;;28.50;13.30;;;;;;;22.06;28.51;99430.01;108325;1251;60447;-64
2023/03/15 06:48:13;;;;;;;23.30;12.60;;;;;;;22.41;28.05;99427.77;108470;1253;72923;-65
2023/03/15 06:50:42;;;;;;;24.00;12.60;;;;;;;22.46;27.88;99431.08;108289;1251;69317;-67
2023/03/15 06:53:15;;;;;;;25.00;12.70;;;;;;;23.22;27.05;99433.38;108345;1251;72867;-65
2023/03/15 06:55:46;;;;;;;24.30;12.80;;;;;;;23.80;26.39;99432.71;108182;1253;61363;-67
2023/03/15 06:58:13;;;;;;;21.80;11.80;;;;;;;23.75;26.26;99433.52;108346;1251;60527;-66
2023/03/15 07:00:40;;;;;;;26.30;13.30;;;;;;;24.06;26.01;99431.45;108476;1251;72295;-67
2023/03/15 07:03:07;;;;;;;22.60;12.00;;;;;;;23.95;25.88;99428.79;108321;1251;71623;-67
2023/03/15 07:05:34;;;;;;;19.80;11.60;;;;;;;24.08;26.04;99424.10;108222;1251;73502;-67
2023/03/15 07:08:10;;;;;;;20.80;11.90;;;;;;;24.44;25.54;99424.03;108259;1250;61512;-66
2023/03/15 07:10:37;;;;;;;19.60;10.70;;;;;;;24.64;25.34;99422.16;108212;1250;61299;-66
2023/03/15 07:13:05;;;;;;;20.40;10.60;;;;;;;24.95;25.03;99422.46;108263;1251;73040;-66
2023/03/15 07:15:35;;;;;;;19.20;10.30;;;;;;;24.55;25.34;99427.52;108196;1250;71550;-67
2023/03/15 07:18:02;;;;;;;20.60;10.90;;;;;;;24.52;25.43;99421.25;108369;1250;71978;-68
2023/03/15 07:20:30;;;;;;;17.90;10.60;;;;;;;25.19;24.99;99419.71;108261;1251;60395;-67
2023/03/15 07:22:58;;;;;;;16.30;9.10;;;;;;;25.44;24.44;99418.30;108305;1250;60287;-68
2023/03/15 07:25:25;;;;;;;19.70;11.40;;;;;;;25.58;24.16;99420.48;108260;1250;73176;-67
2023/03/15 07:27:52;;;;;;;21.10;10.70;;;;;;;25.72;24.17;99422.84;108278;1250;71298;-66
2023/03/15 07:30:19;;;;;;;21.20;11.50;;;;;;;25.83;24.02;99426.54;108263;1251;73960;-66
2023/03/15 07:32:46;;;;;;;19.80;11.00;;;;;;;25.81;23.97;99427.49;108229;1251;62428;-66
2023/03/15 07:35:20;;;;;;;21.00;10.00;;;;;;;25.42;24.17;99425.55;108293;1250;61254;-68
2023/03/15 07:37:48;;;;;;;21.10;11.30;;;;;;;26.23;23.87;99423.50;108522;1251;74696;-66
2023/03/15 07:40:15;;;;;;;17.50;9.80;;;;;;;27.19;23.02;99423.02;108474;1251;69406;-66
2023/03/15 07:42:42;;;;;;;19.40;9.80;;;;;;;28.01;22.31;99421.52;108355;1252;73571;-66
2023/03/15 07:45:10;;;;;;;18.40;10.70;;;;;;;28.67;21.59;99421.54;108421;1251;61369;-67
2023/03/15 07:47:41;;;;;;;19.60;10.50;;;;;;;29.10;20.91;99414.75;108306;1251;61402;-66
2023/03/15 07:50:11;;;;;;;18.40;9.50;;;;;;;29.37;20.80;99412.97;108276;1250;74645;-67
2023/03/15 07:52:43;;;;;;;17.30;9.20;;;;;;;29.57;20.44;99409.95;108298;1251;71242;-67
2023/03/15 07:55:11;;;;;;;16.10;9.50;;;;;;;29.91;20.35;99412.58;108260;1251;72001;-66
2023/03/15 07:57:38;;;;;;;14.10;9.40;;;;;;;29.46;20.48;99411.21;108237;1250;60841;-67
2023/03/15 08:00:12;;;;;;;15.30;8.70;;;;;;;29.67;20.28;99404.66;108292;1251;61154;-66
2023/03/15 08:02:40;;;;;;;13.50;8.70;;;;;;;30.16;19.95;99403.05;108380;1250;75176;-65
2023/03/15 08:05:07;;;;;;;14.30;7.90;;;;;;;29.95;19.93;99407.20;108340;1252;72319;-68
2023/03/15 08:07:35;;;;;;;13.70;8.60;;;;;;;30.08;20.05;99414.89;108224;1251;73875;-65
2023/03/15 08:10:04;;;;;;;14.00;8.00;;;;;;;30.21;19.62;99419.56;108224;1250;60322;-66
2023/03/15 08:12:33;;;;;;;15.70;7.90;;;;;;;30.47;19.40;99418.23;108206;1250;61420;-67
2023/03/15 08:15:00;;;;;;;15.40;7.90;;;;;;;30.23;19.44;99418.73;108252;1250;74296;-66
2023/03/15 08:17:34;;;;;;;14.50;8.10;;;;;;;30.22;19.67;99413.05;108345;1250;70942;-67
2023/03/15 08:20:10;;;;;;;12.60;7.30;;;;;;;30.33;19.53;99414.91;108455;1251;73910;-66
2023/03/15 08:22:43;;;;;;;13.10;7.90;;;;;;;30.04;19.37;99400.21;108379;1251;61126;-67
2023/03/15 08:25:10;;;;;;;;;;;;;;;29.61;19.92;99397.64;108286;1251;60322;-68
2023/03/15 08:27:37;;;;;;;14.20;9.00;;;;;;;29.77;19.96;99396.95;108203;1251;73344;-66
2023/03/15 08:30:05;;;;;;;14.40;8.70;;;;;;;29.51;20.38;99399.85;108334;1251;70846;-65
2023/03/15 08:32:32;;;;;;;15.30;8.70;;;;;;;28.79;20.56;99402.30;108305;1251;73785;-67
2023/03/15 08:34:59;;;;;;;16.10;8.20;;;;;;;29.11;20.67;99410.84;108335;1251;61267;-67
2023/03/15 08:37:28;;;;;;;13.00;8.10;;;;;;;29.21;20.46;99412.54;108408;1251;60443;-67
2023/03/15 08:39:56;;;;;;;17.50;10.10;;;;;;;29.99;20.07;99412.66;108331;1251;74211;-68
2023/03/15 08:42:23;;;;;;;16.60;9.00;;;;;;;30.22;20.05;99405.41;108412;1251;70389;-67
2023/03/15 08:44:51;;;;;;;14.90;8.60;;;;;;;30.39;19.84;99407.21;108331;1251;72603;-65
2023/03/15 08:47:17;;;;;;;14.80;8.30;;;;;;;29.85;20.07;99406.30;108398;1251;60939;-65
2023/03/15 08:49:44;;;;;;;17.00;8.40;;;;;;;30.16;19.89;99399.74;108180;1251;61226;-65
2023/03/15 08:52:12;;;;;;;9.80;6.90;;;;;;;30.48;19.62;99393.74;108233;1255;75552;-67
2023/03/15 08:54:40;;;;;;;15.40;7.60;;;;;;;30.80;19.52;99390.92;108351;1251;70821;-67
2023/03/15 08:57:07;;;;;;;12.50;7.90;;;;;;;30.73;19.15;99392.21;108343;1251;73817;-67
2023/03/15 08:59:34;;;;;;;12.80;6.40;;;;;;;30.19;19.50;99384.71;108362;1251;60555;-67
2023/03/15 09:02:01;;;;;;;14.10;8.20;;;;;;;29.71;20.10;99384.38;108371;1251;61426;-67
2023/03/15 09:04:30;;;;;;;11.70;8.70;;;;;;;30.03;20.02;99385.64;108406;1251;73956;-67
2023/03/15 09:06:57;;;;;;;14.70;8.10;;;;;;;30.65;19.73;99380.33;108362;1251;69852;-68
2023/03/15 09:09:27;;;;;;;14.80;8.30;;;;;;;30.67;19.71;99386.23;108365;1255;71776;-66
2023/03/15 09:11:55;;;;;;;16.50;7.60;;;;;;;30.79;19.57;99381.91;108323;1251;60662;-67
2023/03/15 09:14:23;;;;;;;11.50;6.30;;;;;;;30.80;19.42;99376.36;108190;1256;60949;-67
2023/03/15 09:16:53;;;;;;;14.00;7.70;;;;;;;31.12;18.94;99377.03;108332;1255;74430;-65
2023/03/15 09:19:20;;;;;;;13.80;6.50;;;;;;;31.15;18.91;99376.30;108310;1251;69470;-67
2023/03/15 09:21:47;;;;;;;13.10;6.00;;;;;;;31.25;18.84;99378.55;108332;1251;73431;-67
2023/03/15 09:24:14;;;;;;;12.20;6.40;;;;;;;30.83;18.97;99374.70;108271;1251;61201;-67
2023/03/15 09:26:40;;;;;;;10.30;5.60;;;;;;;30.43;19.64;99373.58;108395;1253;61768;-67
2023/03/15 09:29:08;;;;;;;14.10;6.00;;;;;;;30.86;19.24;99366.67;108335;1251;73506;-66
2023/03/15 09:31:35;;;;;;;13.80;6.60;;;;;;;30.85;19.11;99362.55;108331;1251;70696;-67
2023/03/15 09:34:02;;;;;;;14.30;6.00;;;;;;;31.72;18.73;99355.38;108282;1251;72884;-66
2023/03/15 09:38:28;;;;;;;10.90;6.20;;;;;;;27.99;21.78;99362.77;104880;1292;600302;-66
2023/03/15 09:41:00;;;;;;;12.50;6.10;;;;;;;30.01;20.15;99360.48;107335;1264;61339;-66
2023/03/15 09:43:41;;;;;;;14.90;6.70;;;;;;;30.26;20.03;99358.55;107361;1265;61336;-68
2023/03/15 09:46:30;;;;;;;19.00;7.30;;;;;;;29.75;20.31;99358.61;107274;1266;73231;-66
2023/03/15 09:49:20;;;;;;;14.80;7.10;;;;;;;30.22;20.28;99358.77;107301;1264;71318;-67
2023/03/15 09:51:56;;;;;;;14.40;6.70;;;;;;;30.17;20.09;99370.58;107427;1262;139170;-66
2023/03/15 09:54:31;;;;;;;14.40;6.70;;;;;;;29.30;20.57;99373.38;107542;1260;61284;-67
2023/03/15 09:57:03;;;;;;;15.20;6.00;;;;;;;29.03;21.00;99367.20;107549;1265;59607;-67
2023/03/15 09:59:34;;;;;;;11.10;6.30;;;;;;;28.88;21.33;99361.33;107421;1260;70188;-67
2023/03/15 10:02:13;;;;;;;16.70;6.50;;;;;;;29.24;21.20;99350.40;107599;1260;71165;-68
2023/03/15 10:04:42;;;;;;;10.90;6.60;;;;;;;29.81;20.65;99349.29;107634;1260;74108;-68
2023/03/15 10:07:14;;;;;;;16.40;7.50;;;;;;;29.34;20.72;99347.56;107568;1260;61602;-68
2023/03/15 10:09:43;;;;;;;13.70;6.60;;;;;;;29.17;20.60;99345.58;107542;1263;61671;-66
2023/03/15 10:12:15;;;;;;;14.90;6.60;;;;;;;28.60;21.39;99346.02;107620;1260;74305;-67
2023/03/15 10:14:59;;;;;;;14.50;6.90;;;;;;;28.74;21.37;99351.69;107590;1260;71301;-67
2023/03/15 10:17:55;;;;;;;13.90;5.90;;;;;;;29.00;21.15;99357.65;107594;1261;73229;-67
2023/03/15 10:20:26;;;;;;;10.80;7.00;;;;;;;29.17;20.76;99352.85;107644;1265;61547;-65
2023/03/15 10:23:00;;;;;;;11.00;6.50;;;;;;;29.53;20.80;99350.88;107719;1260;60292;-67
2023/03/15 10:25:35;;;;;;;11.40;6.50;;;;;;;28.59;20.86;99359.81;107660;1259;72148;-67
2023/03/15 10:28:23;;;;;;;11.20;6.40;;;;;;;28.68;21.01;99351.07;107504;1266;71074;-67
2023/03/15 10:30:51;;;;;;;13.00;6.10;;;;;;;29.39;20.68;99341.97;107924;1260;73712;-67
2023/03/15 10:33:31;;;;;;;15.40;7.40;;;;;;;30.00;20.02;99340.06;107895;1260;61210;-66
2023/03/15 10:36:01;;;;;;;12.10;6.70;;;;;;;30.26;19.68;99332.31;107861;1260;60339;-67
2023/03/15 10:38:40;;;;;;;14.70;7.10;;;;;;;30.41;19.54;99328.95;107902;1259;73145;-68
2023/03/15 10:41:11;;;;;;;12.40;7.10;;;;;;;30.66;19.61;99326.28;107912;1259;71565;-67
2023/03/15 10:43:44;;;;;;;12.00;7.20;;;;;;;31.01;19.22;99329.88;107890;1258;73063;-66
2023/03/15 10:46:20;;;;;;;12.60;6.20;;;;;;;30.33;19.53;99337.57;107606;1257;60419;-67
2023/03/15 10:48:55;;;;;;;12.40;7.00;;;;;;;30.55;19.43;99342.23;107948;1260;60497;-66
2023/03/15 10:51:31;;;;;;;9.10;5.70;;;;;;;30.56;19.35;99344.49;107975;1258;73981;-69
2023/03/15 10:54:12;;;;;;;11.20;5.50;;;;;;;30.44;19.69;99343.33;107986;1259;71659;-67
2023/03/15 10:57:04;;;;;;;10.40;5.90;;;;;;;30.41;19.59;99338.46;108027;1259;73030;-67
2023/03/15 10:59:33;;;;;;;12.80;5.70;;;;;;;30.65;19.06;99343.96;108003;1259;59896;-67
2023/03/15 11:02:10;;;;;;;14.40;6.10;;;;;;;29.70;19.97;99341.42;108053;1254;60644;-67
2023/03/15 11:04:40;;;;;;;12.30;5.50;;;;;;;30.24;19.12;99332.80;107931;1254;74003;-68
2023/03/15 11:07:12;;;;;;;11.80;5.40;;;;;;;30.54;19.01;99326.64;108084;1254;70782;-68
2023/03/15 11:10:04;;;;;;;13.00;5.60;;;;;;;30.84;18.64;99320.34;107866;1254;73683;-68
2023/03/15 11:12:33;;;;;;;14.10;6.40;;;;;;;30.76;18.36;99326.43;108006;1254;59628;-68
2023/03/15 11:15:12;;;;;;;14.60;5.70;;;;;;;30.14;18.60;99330.29;108020;1254;61047;-68
2023/03/15 11:17:46;;;;;;;13.10;5.90;;;;;;;29.79;18.84;99332.39;107878;1260;74390;-70
2023/03/15 11:20:35;;;;;;;11.20;6.30;;;;;;;29.61;19.26;99327.63;108007;1254;70607;-66
2023/03/15 11:23:32;;;;;;;8.60;5.20;;;;;;;28.50;19.91;99333.54;108015;1254;74082;-67
2023/03/15 11:26:00;;;;;;;11.70;5.80;;;;;;;28.05;20.07;99332.48;108152;1255;61644;-67
2023/03/15 11:28:34;;;;;;;11.80;5.50;;;;;;;28.09;20.27;99334.30;107703;1257;60254;-68
2023/03/15 11:31:03;;;;;;;18.40;7.20;;;;;;;26.78;21.54;99332.01;107747;1258;73056;-67
2023/03/15 11:33:50;;;;;;;16.60;6.60;;;;;;;26.62;21.77;99331.56;107962;1260;71437;-67
2023/03/15 11:36:20;;;;;;;13.50;5.90;;;;;;;26.90;21.78;99336.17;107911;1257;73384;-68
2023/03/15 11:38:52;;;;;;;14.60;6.50;;;;;;;26.57;22.27;99337.54;107947;1259;61115;-66
2023/03/15 11:41:37;;;;;;;11.80;5.20;;;;;;;26.17;22.74;99341.46;107973;1256;60524;-67
2023/03/15 11:44:30;;;;;;;13.30;6.50;;;;;;;25.12;23.94;99342.91;107976;1257;72359;-67
2023/03/15 11:47:23;;;;;;;15.60;6.90;;;;;;;24.95;24.52;99343.31;107990;1257;70061;-68